Time;durP1;ratioP1;P1;durP2;ratioP2;P2;SDS_P1;SDS_P2;PMS_P1;PMS_P2;Temp;Humidity;BMP_temperature;BMP_pressure;BME280_temperature;BME280_humidity;BME280_pressure;Samples;Min_cycle;Max_cycle;Signal;HPM_P1;HPM_P2
2022/05/13 00:01:53;;;;;;;27.17;10.00;;;8.70;99.90;;;;;;5035505;28;20033;-71
2022/05/13 00:04:19;;;;;;;25.48;8.85;;;8.70;99.90;;;;;;5035509;28;20029;-71
2022/05/13 00:06:45;;;;;;;30.27;11.15;;;8.60;99.90;;;;;;5035368;28;20488;-71
2022/05/13 00:09:10;;;;;;;23.75;9.63;;;8.70;99.90;;;;;;5035503;28;20069;-71
2022/05/13 00:11:36;;;;;;;33.22;10.65;;;8.70;99.90;;;;;;5035061;28;20029;-71
2022/05/13 00:14:03;;;;;;;29.25;10.63;;;8.70;99.90;;;;;;5035168;28;20489;-71
2022/05/13 00:16:29;;;;;;;42.08;12.68;;;8.80;99.90;;;;;;5035640;28;20105;-71
2022/05/13 00:18:54;;;;;;;36.95;12.95;;;8.80;99.90;;;;;;5035503;28;20061;-71
2022/05/13 00:21:20;;;;;;;38.85;13.30;;;8.80;99.90;;;;;;5034731;28;20057;-71
2022/05/13 00:23:46;;;;;;;25.85;9.18;;;8.90;99.90;;;;;;5035026;28;20075;-71
2022/05/13 00:26:11;;;;;;;33.72;9.93;;;8.90;99.90;;;;;;5035133;28;20060;-71
2022/05/13 00:28:37;;;;;;;32.33;11.27;;;8.90;99.90;;;;;;5034978;28;20057;-71
2022/05/13 00:31:04;;;;;;;40.95;13.32;;;9.00;99.90;;;;;;5034914;28;20035;-71
2022/05/13 00:33:32;;;;;;;23.63;11.35;;;9.00;99.90;;;;;;5034767;28;20541;-71
2022/05/13 00:35:58;;;;;;;31.77;11.73;;;9.00;99.90;;;;;;5034876;28;20500;-71
2022/05/13 00:38:23;;;;;;;18.25;9.90;;;9.00;99.90;;;;;;5034440;28;20022;-71
2022/05/13 00:40:49;;;;;;;24.83;11.07;;;8.90;99.90;;;;;;5035004;28;20091;-71
2022/05/13 00:43:41;;;;;;;21.10;9.55;;;8.90;99.90;;;;;;5034685;28;20025;-71
2022/05/13 00:46:06;;;;;;;32.45;11.93;;;8.90;99.90;;;;;;5034753;28;20021;-71
2022/05/13 00:48:32;;;;;;;26.15;9.25;;;8.90;99.90;;;;;;5035103;28;20030;-71
2022/05/13 00:50:58;;;;;;;35.42;11.77;;;8.90;99.90;;;;;;5033368;28;20120;-71
2022/05/13 00:53:25;;;;;;;30.35;10.90;;;8.90;99.90;;;;;;5033766;28;20112;-71
2022/05/13 00:55:52;;;;;;;34.15;12.32;;;9.00;99.90;;;;;;5034812;28;20134;-71
2022/05/13 00:58:19;;;;;;;27.15;11.45;;;8.90;99.90;;;;;;5034447;28;20030;-71
2022/05/13 01:00:46;;;;;;;31.40;12.45;;;8.90;99.90;;;;;;5034404;28;20075;-71
2022/05/13 01:03:13;;;;;;;24.98;12.18;;;8.90;99.90;;;;;;5033927;28;20029;-71
2022/05/13 01:05:42;;;;;;;27.75;10.35;;;8.80;99.90;;;;;;5034868;28;20481;-71
2022/05/13 01:08:09;;;;;;;37.88;12.52;;;8.80;99.90;;;;;;5034427;28;20033;-71
2022/05/13 01:10:36;;;;;;;29.95;12.60;;;8.80;99.90;;;;;;5034504;28;20485;-71
2022/05/13 01:13:07;;;;;;;21.42;10.60;;;8.80;99.90;;;;;;5033635;28;20032;-71
2022/05/13 01:15:35;;;;;;;46.85;14.10;;;8.90;99.90;;;;;;5034423;28;20096;-71
2022/05/13 01:18:05;;;;;;;25.88;12.60;;;8.90;99.90;;;;;;5034073;28;20026;-71
2022/05/13 01:20:51;;;;;;;29.63;10.98;;;9.00;99.90;;;;;;5033444;28;20017;-71
2022/05/13 01:23:19;;;;;;;38.58;12.23;;;9.10;99.90;;;;;;5033862;28;20044;-71
2022/05/13 01:25:48;;;;;;;28.95;12.05;;;9.10;99.90;;;;;;5032916;28;20495;-71
2022/05/13 01:28:18;;;;;;;30.02;13.40;;;9.10;99.90;;;;;;5034110;28;20025;-71
2022/05/13 01:30:51;;;;;;;36.05;13.68;;;9.10;99.90;;;;;;5034914;28;20025;-71
2022/05/13 01:33:17;;;;;;;30.05;12.07;;;9.20;99.90;;;;;;5034733;28;20101;-71
2022/05/13 01:35:44;;;;;;;27.30;12.00;;;9.20;99.90;;;;;;5034757;28;20135;-71
2022/05/13 01:38:11;;;;;;;23.80;11.18;;;9.20;99.90;;;;;;5033960;28;20018;-71
2022/05/13 01:40:37;;;;;;;17.13;9.82;;;9.20;99.90;;;;;;5027838;28;20026;-71
2022/05/13 01:43:03;;;;;;;29.05;12.35;;;9.10;99.90;;;;;;5029642;28;20037;-71
2022/05/13 01:45:29;;;;;;;35.78;14.63;;;9.20;99.90;;;;;;5016001;28;20034;-71
2022/05/13 01:47:55;;;;;;;30.80;12.77;;;9.20;99.90;;;;;;5014031;28;20026;-71
2022/05/13 01:50:22;;;;;;;38.38;14.05;;;9.20;99.90;;;;;;5016184;28;20053;-71
2022/05/13 01:52:49;;;;;;;39.20;12.95;;;9.30;99.90;;;;;;5014024;28;20040;-71
2022/05/13 01:55:15;;;;;;;33.50;13.77;;;9.40;99.90;;;;;;5015982;28;20073;-71
2022/05/13 01:57:40;;;;;;;31.40;12.70;;;9.50;99.90;;;;;;5014136;28;20026;-71
2022/05/13 02:00:07;;;;;;;39.95;12.55;;;9.50;99.90;;;;;;5014072;28;20041;-71
2022/05/13 02:03:43;;;;;;;27.70;10.90;;;9.50;99.90;;;;;;5029700;28;20034;-71
2022/05/13 02:05:18;;;;;;;29.70;12.43;;;9.50;99.90;;;;;;5021291;28;20026;-71
2022/05/13 02:07:43;;;;;;;33.83;12.57;;;9.60;99.90;;;;;;5014085;28;20425;-71
2022/05/13 02:10:09;;;;;;;25.98;11.68;;;9.50;99.90;;;;;;5014045;28;20034;-71
2022/05/13 02:12:34;;;;;;;37.40;13.43;;;9.60;99.90;;;;;;5014050;28;20381;-71
2022/05/13 02:15:00;;;;;;;31.73;12.35;;;9.60;99.90;;;;;;5013696;28;20025;-71
2022/05/13 02:17:25;;;;;;;31.77;11.52;;;9.60;99.90;;;;;;5013368;28;20064;-71
2022/05/13 02:19:51;;;;;;;30.75;10.88;;;9.60;99.90;;;;;;5014290;28;20041;-71
2022/05/13 02:22:16;;;;;;;28.35;9.57;;;9.60;99.90;;;;;;5014032;28;20030;-72
2022/05/13 02:24:42;;;;;;;27.95;11.25;;;9.60;99.90;;;;;;5013682;28;20030;-72
2022/05/13 02:27:07;;;;;;;23.13;10.05;;;9.70;99.90;;;;;;5013640;28;20470;-72
2022/05/13 02:29:33;;;;;;;27.52;11.02;;;9.70;99.90;;;;;;5013821;28;20034;-71
2022/05/13 02:31:58;;;;;;;17.73;9.90;;;9.70;99.90;;;;;;5015645;28;20030;-71
2022/05/13 02:34:24;;;;;;;18.75;10.75;;;9.70;99.90;;;;;;5017221;28;20112;-71
2022/05/13 02:36:49;;;;;;;22.88;12.13;;;9.70;99.90;;;;;;5017423;28;20076;-71
2022/05/13 02:39:15;;;;;;;34.95;12.00;;;9.70;99.90;;;;;;5017500;28;20030;-71
2022/05/13 02:41:44;;;;;;;29.23;11.80;;;9.80;99.90;;;;;;5017361;28;20018;-71
2022/05/13 02:44:10;;;;;;;31.48;13.32;;;9.80;99.90;;;;;;5017358;28;20478;-71
2022/05/13 02:46:36;;;;;;;42.75;16.35;;;9.80;99.90;;;;;;5016740;28;20109;-72
2022/05/13 02:49:02;;;;;;;30.90;13.90;;;9.80;99.90;;;;;;5017134;28;20121;-72
2022/05/13 02:51:28;;;;;;;30.92;13.75;;;9.90;99.90;;;;;;5017098;28;20038;-72
2022/05/13 02:53:54;;;;;;;33.67;15.38;;;9.90;99.90;;;;;;5016932;28;20404;-71
2022/05/13 02:56:21;;;;;;;37.75;13.73;;;9.90;99.90;;;;;;5017161;28;20422;-71
2022/05/13 02:58:47;;;;;;;27.48;11.82;;;9.90;99.90;;;;;;5016506;28;20037;-71
2022/05/13 03:01:15;;;;;;;32.85;12.90;;;10.00;99.90;;;;;;5016921;28;20026;-71
2022/05/13 03:03:43;;;;;;;28.65;12.68;;;9.90;99.90;;;;;;5016752;28;20034;-71
2022/05/13 03:06:09;;;;;;;32.90;13.57;;;10.00;99.90;;;;;;5016593;28;20437;-71
2022/05/13 03:08:35;;;;;;;35.83;12.88;;;10.00;99.90;;;;;;5016794;28;20022;-71
2022/05/13 03:11:02;;;;;;;24.60;12.15;;;10.00;99.90;;;;;;5016949;28;20163;-71
2022/05/13 03:13:28;;;;;;;31.08;13.38;;;10.00;99.90;;;;;;5016541;28;20022;-71
2022/05/13 03:15:54;;;;;;;35.53;13.00;;;10.00;99.90;;;;;;5016201;28;20022;-72
2022/05/13 03:18:19;;;;;;;21.88;11.23;;;10.00;99.90;;;;;;5016917;28;20032;-72
2022/05/13 03:20:45;;;;;;;25.60;10.30;;;10.00;99.90;;;;;;5016572;28;20045;-72
2022/05/13 03:23:11;;;;;;;28.00;10.43;;;10.10;99.90;;;;;;5016100;28;20390;-71
2022/05/13 03:25:37;;;;;;;32.95;11.90;;;10.10;99.90;;;;;;5016479;28;20032;-71
2022/05/13 03:28:03;;;;;;;24.08;9.55;;;10.10;99.90;;;;;;5016456;28;20032;-71
2022/05/13 03:30:28;;;;;;;28.85;9.52;;;10.10;99.90;;;;;;5015886;28;20441;-71
2022/05/13 03:32:55;;;;;;;26.42;9.32;;;10.20;99.90;;;;;;5016139;28;20112;-71
2022/05/13 03:35:22;;;;;;;25.60;9.60;;;10.10;99.90;;;;;;5016536;28;20022;-71
2022/05/13 03:37:48;;;;;;;26.08;9.82;;;10.20;99.90;;;;;;5016339;28;20036;-71
2022/05/13 03:40:16;;;;;;;25.95;9.30;;;10.20;99.90;;;;;;5015906;28;20026;-71
2022/05/13 03:42:42;;;;;;;24.65;8.93;;;10.10;99.90;;;;;;5015856;28;20022;-71
2022/05/13 03:45:09;;;;;;;21.95;8.27;;;10.20;99.90;;;;;;5016021;28;20440;-71
2022/05/13 03:47:34;;;;;;;25.20;8.13;;;10.10;99.90;;;;;;5016217;28;20026;-71
2022/05/13 03:50:00;;;;;;;22.35;7.35;;;10.10;99.90;;;;;;5016094;28;20030;-72
2022/05/13 03:52:26;;;;;;;23.98;8.45;;;10.20;99.90;;;;;;5014504;28;20033;-71
2022/05/13 03:54:51;;;;;;;19.58;7.22;;;10.20;99.90;;;;;;5016622;28;20034;-71
2022/05/13 03:57:17;;;;;;;17.10;7.18;;;10.20;99.90;;;;;;5017388;28;20037;-71
2022/05/13 03:59:42;;;;;;;17.13;7.63;;;10.20;99.90;;;;;;5016641;28;20025;-71
2022/05/13 04:02:08;;;;;;;28.60;7.00;;;10.30;99.90;;;;;;5015950;28;20022;-71
2022/05/13 04:10:04;;;;;;;19.23;5.95;;;10.40;99.90;;;;;;5016196;28;20389;-71
2022/05/13 04:17:59;;;;;;;17.33;6.63;;;10.50;99.90;;;;;;5015991;28;20428;-71
2022/05/13 04:20:25;;;;;;;15.88;6.35;;;10.50;99.90;;;;;;5014910;28;20103;-71
2022/05/13 04:22:50;;;;;;;31.83;7.97;;;10.60;99.90;;;;;;5015660;28;20058;-71
2022/05/13 04:25:17;;;;;;;25.95;7.60;;;10.60;99.90;;;;;;5015337;28;20494;-71
2022/05/13 04:27:43;;;;;;;20.50;6.45;;;10.60;99.90;;;;;;5015483;28;20026;-71
2022/05/13 04:30:09;;;;;;;30.80;7.03;;;10.60;99.90;;;;;;5014890;28;20018;-71
2022/05/13 04:32:35;;;;;;;17.95;5.78;;;10.60;99.90;;;;;;5015417;28;20069;-71
2022/05/13 04:35:00;;;;;;;28.10;7.97;;;10.60;99.90;;;;;;5014994;28;20049;-71
2022/05/13 04:37:26;;;;;;;17.42;5.40;;;10.70;99.90;;;;;;5015115;28;20022;-71
2022/05/13 04:39:53;;;;;;;18.50;6.32;;;10.70;99.90;;;;;;5014716;28;20059;-71
2022/05/13 04:45:05;;;;;;;19.55;7.38;;;10.80;99.90;;;;;;5015621;28;20088;-71
2022/05/13 04:50:14;;;;;;;;;;;10.90;99.90;;;;;;5015349;28;20033;-71
2022/05/13 04:52:40;;;;;;;41.30;9.98;;;10.90;99.90;;;;;;5014384;28;19909;-71
2022/05/13 04:55:06;;;;;;;24.92;11.25;;;11.00;99.90;;;;;;5014156;28;20069;-71
2022/05/13 04:57:32;;;;;;;34.22;12.73;;;11.00;99.90;;;;;;5014844;28;20021;-71
2022/05/13 04:59:58;;;;;;;29.70;12.55;;;11.10;99.90;;;;;;5014766;28;20057;-71
2022/05/13 05:02:23;;;;;;;36.78;14.50;;;11.10;99.90;;;;;;5015123;28;20025;-71
2022/05/13 05:04:49;;;;;;;41.00;16.27;;;11.20;99.90;;;;;;5014525;28;20032;-71
2022/05/13 05:07:15;;;;;;;32.58;15.50;;;11.30;99.90;;;;;;5014087;28;20108;-71
2022/05/13 05:09:40;;;;;;;44.47;17.60;;;11.30;99.90;;;;;;5015088;28;20068;-71
2022/05/13 05:12:08;;;;;;;38.78;17.27;;;11.40;99.90;;;;;;5014417;28;20025;-71
2022/05/13 05:14:33;;;;;;;46.47;19.40;;;11.50;99.90;;;;;;5014038;28;20064;-71
2022/05/13 05:16:59;;;;;;;37.60;19.08;;;11.50;99.90;;;;;;5014604;28;20022;-71
2022/05/13 05:19:25;;;;;;;39.92;19.27;;;11.60;99.90;;;;;;5014678;28;20029;-71
2022/05/13 05:21:51;;;;;;;50.72;21.95;;;11.60;99.90;;;;;;5014672;28;20217;-71
2022/05/13 05:24:16;;;;;;;64.22;24.33;;;11.70;99.90;;;;;;5014365;28;20057;-71
2022/05/13 05:26:42;;;;;;;60.85;21.98;;;11.70;99.90;;;;;;5014537;28;20053;-71
2022/05/13 05:29:08;;;;;;;57.70;22.83;;;11.80;99.90;;;;;;5013980;28;20026;-71
2022/05/13 05:31:34;;;;;;;54.78;23.17;;;11.80;99.90;;;;;;5016559;28;20021;-71
2022/05/13 05:33:59;;;;;;;40.70;18.92;;;11.80;99.90;;;;;;5014107;28;20033;-71
2022/05/13 05:36:25;;;;;;;53.10;20.90;;;11.80;99.90;;;;;;5014107;28;20026;-71
2022/05/13 05:38:50;;;;;;;44.63;19.17;;;11.90;99.90;;;;;;5029731;28;20456;-71
2022/05/13 05:41:18;;;;;;;65.32;20.92;;;11.80;99.90;;;;;;5033676;28;20441;-71
2022/05/13 05:43:43;;;;;;;47.53;18.50;;;11.90;99.90;;;;;;5012677;28;20029;-71
2022/05/13 05:46:09;;;;;;;48.97;20.77;;;11.90;99.90;;;;;;5014012;28;20030;-71
2022/05/13 05:48:34;;;;;;;53.08;19.00;;;12.00;99.90;;;;;;5014200;28;20033;-71
2022/05/13 05:51:00;;;;;;;49.67;18.85;;;12.00;99.90;;;;;;5013538;28;20037;-71
2022/05/13 05:59:00;;;;;;;52.75;19.02;;;12.10;99.90;;;;;;5013310;28;20041;-66
2022/05/13 06:01:27;;;;;;;46.63;16.73;;;12.10;99.90;;;;;;5013436;28;20498;-66
2022/05/13 06:03:53;;;;;;;42.50;16.38;;;12.20;99.90;;;;;;5013402;28;20045;-66
2022/05/13 06:06:18;;;;;;;48.55;16.17;;;12.10;99.90;;;;;;5016932;28;20034;-66
2022/05/13 06:08:44;;;;;;;53.92;15.27;;;12.10;99.90;;;;;;5016971;28;20026;-66
2022/05/13 06:11:10;;;;;;;49.47;16.02;;;12.20;99.90;;;;;;5017416;28;20037;-67
2022/05/13 06:13:36;;;;;;;47.65;14.27;;;12.10;99.90;;;;;;5017438;28;20026;-66
2022/05/13 06:16:02;;;;;;;58.20;14.52;;;12.20;99.90;;;;;;5017567;28;20041;-66
2022/05/13 06:18:28;;;;;;;59.92;14.25;;;12.20;99.90;;;;;;5017509;28;20030;-66
2022/05/13 06:20:53;;;;;;;48.53;14.45;;;12.20;99.90;;;;;;5016986;28;20470;-66
2022/05/13 06:23:19;;;;;;;47.58;13.93;;;12.20;99.90;;;;;;5017423;28;20153;-66
2022/05/13 06:25:45;;;;;;;55.65;12.95;;;12.10;99.90;;;;;;5017159;28;20064;-66
2022/05/13 06:28:10;;;;;;;50.50;14.43;;;12.10;99.90;;;;;;5015862;28;20521;-66
2022/05/13 06:30:36;;;;;;;29.77;9.80;;;12.10;99.90;;;;;;5017221;28;20034;-66
2022/05/13 06:33:03;;;;;;;47.15;11.27;;;12.00;99.90;;;;;;5016662;28;20128;-66
2022/05/13 06:35:32;;;;;;;29.17;9.25;;;11.90;99.90;;;;;;5016835;28;20111;-66
2022/05/13 06:37:57;;;;;;;30.10;8.50;;;11.80;99.90;;;;;;5015527;28;20121;-66
2022/05/13 06:40:24;;;;;;;34.60;9.05;;;11.60;99.90;;;;;;5016939;28;20478;-66
2022/05/13 06:42:51;;;;;;;31.50;7.97;;;11.50;99.90;;;;;;5016441;28;20036;-66
2022/05/13 06:45:17;;;;;;;35.40;6.78;;;11.40;99.90;;;;;;5016624;28;20017;-66
2022/05/13 06:47:43;;;;;;;28.08;7.13;;;11.30;99.90;;;;;;5016975;28;20037;-65
2022/05/13 06:50:11;;;;;;;26.27;6.70;;;11.10;99.90;;;;;;5016948;28;20026;-65
2022/05/13 06:52:38;;;;;;;19.65;6.22;;;11.00;99.90;;;;;;5016309;28;20030;-65
2022/05/13 06:55:05;;;;;;;32.38;6.47;;;10.90;99.90;;;;;;5016377;28;20041;-66
2022/05/13 06:57:31;;;;;;;24.13;5.88;;;10.80;99.90;;;;;;5016831;28;20132;-65
2022/05/13 06:59:57;;;;;;;32.67;6.15;;;10.80;99.90;;;;;;5017029;28;20056;-66
2022/05/13 07:02:23;;;;;;;43.13;6.13;;;10.80;99.90;;;;;;5016451;28;20040;-66
2022/05/13 07:04:49;;;;;;;25.52;5.05;;;10.80;99.90;;;;;;5015797;28;20053;-65
2022/05/13 07:07:15;;;;;;;20.90;5.05;;;10.70;99.90;;;;;;5016354;28;20160;-66
2022/05/13 07:09:41;;;;;;;28.67;4.50;;;10.80;99.90;;;;;;5017239;28;20025;-66
2022/05/13 07:12:08;;;;;;;14.63;3.55;;;10.80;99.90;;;;;;5014535;28;20038;-66
2022/05/13 07:14:35;;;;;;;18.92;4.15;;;10.80;99.90;;;;;;5015969;28;20101;-66
2022/05/13 07:17:01;;;;;;;13.48;3.50;;;10.90;99.90;;;;;;5013919;28;20076;-66
2022/05/13 07:19:27;;;;;;;8.90;2.47;;;11.10;99.90;;;;;;5016266;28;20022;-66
2022/05/13 07:21:53;;;;;;;7.85;2.97;;;11.20;99.90;;;;;;5016079;28;20497;-66
2022/05/13 07:24:18;;;;;;;10.15;2.70;;;11.50;99.90;;;;;;5015300;28;20022;-66
2022/05/13 07:26:44;;;;;;;9.65;2.55;;;11.90;99.90;;;;;;5016456;28;20029;-66
2022/05/13 07:29:10;;;;;;;11.43;2.35;;;12.10;99.90;;;;;;5016225;28;20101;-66
2022/05/13 07:31:35;;;;;;;9.63;2.58;;;12.20;99.90;;;;;;5016128;28;20429;-66
2022/05/13 07:34:02;;;;;;;11.30;3.03;;;12.40;99.90;;;;;;5016148;28;20037;-66
2022/05/13 07:36:27;;;;;;;8.27;3.08;;;12.40;99.90;;;;;;5015317;28;20024;-66
2022/05/13 07:41:37;;;;;;;12.90;4.03;;;12.80;99.90;;;;;;4998849;28;20032;-66
2022/05/13 07:44:03;;;;;;;8.98;2.97;;;13.10;99.90;;;;;;5005567;28;20117;-66
2022/05/13 07:46:29;;;;;;;12.57;3.40;;;13.10;99.90;;;;;;5016423;28;20037;-66
2022/05/13 07:48:54;;;;;;;15.55;3.97;;;13.40;99.90;;;;;;5015697;28;20022;-66
2022/05/13 07:51:23;;;;;;;14.10;4.00;;;13.50;99.90;;;;;;5015447;28;20121;-67
2022/05/13 07:53:48;;;;;;;25.45;4.97;;;13.70;99.90;;;;;;5015403;28;20033;-67
2022/05/13 07:56:14;;;;;;;33.40;7.55;;;13.80;99.90;;;;;;5015115;28;20115;-66
2022/05/13 07:58:40;;;;;;;16.60;5.78;;;14.00;99.90;;;;;;5015633;28;20049;-66
2022/05/13 08:01:05;;;;;;;25.25;6.43;;;14.20;99.90;;;;;;5015822;28;20080;-66
2022/05/13 08:03:31;;;;;;;32.45;6.35;;;14.20;99.90;;;;;;5015176;28;20034;-66
2022/05/13 08:06:02;;;;;;;34.42;7.20;;;14.30;99.90;;;;;;5015197;28;20056;-66
2022/05/13 08:08:40;;;;;;;20.42;5.70;;;14.30;99.90;;;;;;5014992;28;20049;-66
2022/05/13 08:11:08;;;;;;;24.48;5.72;;;14.30;99.90;;;;;;5015518;28;20033;-66
2022/05/13 08:13:34;;;;;;;38.97;6.80;;;14.10;99.90;;;;;;5015276;28;20064;-66
2022/05/13 08:16:29;;;;;;;24.10;6.57;;;14.20;99.90;;;;;;5015005;28;20081;-66
2022/05/13 08:18:57;;;;;;;36.78;8.82;;;14.50;99.90;;;;;;5014006;28;20512;-67
2022/05/13 08:21:23;;;;;;;38.75;5.88;;;14.80;99.90;;;;;;5014579;28;20049;-67
2022/05/13 08:23:49;;;;;;;37.85;6.60;;;14.70;99.90;;;;;;5014616;28;20061;-67
2022/05/13 08:26:15;;;;;;;34.95;6.65;;;14.80;99.90;;;;;;5015091;28;20125;-67
2022/05/13 08:28:42;;;;;;;28.55;5.72;;;14.80;99.90;;;;;;5015126;28;20029;-67
2022/05/13 08:31:08;;;;;;;30.90;6.55;;;14.90;99.90;;;;;;5015102;28;20026;-67
2022/05/13 08:33:34;;;;;;;42.33;6.53;;;14.60;99.90;;;;;;5014833;28;20026;-67
2022/05/13 08:36:03;;;;;;;28.88;5.75;;;14.70;99.90;;;;;;5014260;28;20394;-66
2022/05/13 08:38:35;;;;;;;31.13;5.85;;;14.80;99.90;;;;;;5015183;28;20026;-66
2022/05/13 08:41:10;;;;;;;29.80;5.57;;;14.50;99.90;;;;;;5014666;28;20025;-66
2022/05/13 08:43:49;;;;;;;32.90;5.95;;;14.40;99.90;;;;;;5014479;28;20026;-66
2022/05/13 08:46:31;;;;;;;26.50;5.68;;;14.40;99.90;;;;;;5014100;28;20129;-66
2022/05/13 08:49:00;;;;;;;29.13;6.35;;;14.30;99.90;;;;;;5014515;28;20061;-66
2022/05/13 08:53:06;;;;;;;31.10;6.00;;;14.00;99.90;;;;;;5014384;28;20042;-66
2022/05/13 08:54:58;;;;;;;26.52;5.60;;;14.00;99.90;;;;;;5013558;28;20580;-66
2022/05/13 08:57:28;;;;;;;30.20;4.90;;;14.20;99.90;;;;;;5014518;28;20018;-67
2022/05/13 09:00:23;;;;;;;29.88;5.63;;;14.20;99.90;;;;;;5014677;28;20113;-67
2022/05/13 09:03:00;;;;;;;31.35;5.20;;;14.60;99.90;;;;;;5005196;28;20033;-67
2022/05/13 09:05:29;;;;;;;21.35;4.45;;;15.10;99.90;;;;;;5014243;28;20390;-67
2022/05/13 09:07:56;;;;;;;26.02;4.32;;;15.40;99.90;;;;;;5014394;28;20084;-67
2022/05/13 09:10:23;;;;;;;22.95;4.07;;;15.30;99.90;;;;;;5029261;28;20029;-66
2022/05/13 09:12:51;;;;;;;23.17;4.85;;;15.10;99.90;;;;;;5014091;28;20069;-67
2022/05/13 09:15:26;;;;;;;22.88;4.22;;;14.80;99.90;;;;;;5014091;28;20080;-67
2022/05/13 09:18:46;;;;;;;31.88;6.05;;;14.80;99.90;;;;;;5013630;28;20034;-67
2022/05/13 09:21:17;;;;;;;17.33;5.15;;;14.90;99.90;;;;;;4991426;28;20074;-66
2022/05/13 09:23:43;;;;;;;20.70;4.75;;;14.70;99.90;;;;;;5013888;28;20045;-66
2022/05/13 09:26:13;;;;;;;23.42;4.13;;;14.40;99.90;;;;;;5014116;28;20026;-66
2022/05/13 09:29:10;;;;;;;19.30;4.03;;;14.20;99.90;;;;;;5013806;28;20489;-66
2022/05/13 09:32:00;;;;;;;20.63;4.28;;;14.20;99.90;;;;;;5013572;28;20053;-66
2022/05/13 09:35:05;;;;;;;21.00;4.47;;;14.30;99.90;;;;;;5013859;28;20072;-66
2022/05/13 09:37:39;;;;;;;21.30;4.30;;;13.90;99.90;;;;;;5004709;28;20366;-66
2022/05/13 09:40:23;;;;;;;28.35;4.90;;;13.50;99.90;;;;;;5013649;28;20572;-65
2022/05/13 09:42:51;;;;;;;22.60;5.20;;;13.40;99.90;;;;;;5014165;28;20030;-66
2022/05/13 09:45:28;;;;;;;23.00;4.90;;;13.30;99.90;;;;;;5013062;28;20034;-66
2022/05/13 09:48:06;;;;;;;19.05;4.75;;;13.30;99.90;;;;;;5014165;28;20026;-66
2022/05/13 09:50:35;;;;;;;30.25;5.13;;;13.40;99.90;;;;;;5013563;28;20065;-66
2022/05/13 09:53:09;;;;;;;35.15;6.32;;;13.40;99.90;;;;;;5013781;28;20105;-66
2022/05/13 09:55:40;;;;;;;25.60;4.95;;;13.50;99.90;;;;;;5027914;28;20517;-66
2022/05/13 09:58:16;;;;;;;31.95;6.78;;;13.60;99.90;;;;;;5013578;28;20385;-66
2022/05/13 10:00:51;;;;;;;45.85;7.32;;;13.50;99.90;;;;;;5013768;28;20030;-66
2022/05/13 10:03:24;;;;;;;22.33;5.78;;;13.40;99.90;;;;;;5013783;28;20125;-66
2022/05/13 10:06:11;;;;;;;40.75;6.43;;;13.40;99.90;;;;;;5013203;28;20025;-66
2022/05/13 10:13:57;;;;;;;28.63;5.18;;;13.50;99.90;;;;;;5013768;28;20033;-65
2022/05/13 10:14:34;;;;;;;25.85;5.53;;;14.00;99.90;;;;;;5013469;28;20095;-65
2022/05/13 10:17:24;;;;;;;20.50;5.35;;;13.80;99.90;;;;;;5013355;28;20041;-65
2022/05/13 10:20:00;;;;;;;25.80;6.88;;;13.60;99.90;;;;;;5012988;28;20105;-65
2022/05/13 10:22:49;;;;;;;30.00;6.78;;;13.40;99.90;;;;;;5013593;28;20022;-65
2022/05/13 10:25:20;;;;;;;38.75;7.90;;;13.30;99.90;;;;;;5013677;28;20033;-67
2022/05/13 10:27:50;;;;;;;36.65;5.97;;;13.20;99.90;;;;;;5013616;28;20034;-66
2022/05/13 10:30:32;;;;;;;23.23;4.70;;;13.40;99.90;;;;;;5012997;28;20021;-66
2022/05/13 10:33:27;;;;;;;22.50;5.40;;;13.40;99.90;;;;;;5013402;28;20036;-66
2022/05/13 10:35:59;;;;;;;22.15;4.43;;;13.40;99.90;;;;;;5013211;28;20481;-65
2022/05/13 10:38:46;;;;;;;29.75;5.18;;;13.50;99.90;;;;;;5012950;28;20029;-65
2022/05/13 10:41:30;;;;;;;25.70;5.80;;;13.50;99.90;;;;;;5013675;28;20030;-65
2022/05/13 10:44:37;;;;;;;40.25;6.05;;;13.70;99.90;;;;;;5013048;28;20030;-64
2022/05/13 10:47:14;;;;;;;26.52;5.50;;;13.90;99.90;;;;;;5012348;28;20204;-65
2022/05/13 10:49:42;;;;;;;25.83;4.95;;;14.30;99.90;;;;;;5013316;28;20233;-65
2022/05/13 10:52:35;;;;;;;23.73;5.28;;;14.40;99.90;;;;;;5014168;28;20058;-65
2022/05/13 10:55:29;;;;;;;23.05;4.45;;;14.20;99.90;;;;;;5016394;28;20034;-65
2022/05/13 10:58:16;;;;;;;26.38;4.75;;;14.20;99.90;;;;;;5016169;28;20048;-65
2022/05/13 11:00:59;;;;;;;21.13;4.20;;;14.20;99.90;;;;;;5016658;28;20390;-65
2022/05/13 11:03:55;;;;;;;27.05;4.38;;;14.30;99.90;;;;;;5016452;28;20061;-65
2022/05/13 11:06:42;;;;;;;27.20;4.85;;;14.10;99.90;;;;;;5016623;28;20022;-65
2022/05/13 11:09:32;;;;;;;18.35;4.22;;;14.00;99.90;;;;;;5016626;28;20101;-64
2022/05/13 11:12:19;;;;;;;20.80;4.45;;;13.70;99.90;;;;;;5015820;28;20030;-65
2022/05/13 11:15:07;;;;;;;31.70;5.10;;;13.60;99.90;;;;;;5016391;28;20045;-65
2022/05/13 11:17:45;;;;;;;28.13;4.80;;;13.60;99.90;;;;;;5016701;28;20037;-64
2022/05/13 11:20:20;;;;;;;18.08;4.85;;;13.60;99.90;;;;;;5016112;28;20037;-64
2022/05/13 11:23:12;;;;;;;16.77;4.10;;;13.80;99.90;;;;;;5016175;28;20026;-64
2022/05/13 11:26:05;;;;;;;14.20;3.85;;;13.80;99.90;;;;;;5009876;28;20042;-64
2022/05/13 11:28:49;;;;;;;22.63;4.95;;;13.70;99.90;;;;;;5016204;28;20030;-65
2022/05/13 11:31:30;;;;;;;23.67;6.05;;;13.80;99.90;;;;;;5033571;28;20143;-65
2022/05/13 11:34:08;;;;;;;22.55;4.32;;;13.80;99.90;;;;;;5035483;28;20025;-65
2022/05/13 11:36:45;;;;;;;18.88;4.57;;;13.70;99.90;;;;;;5014922;28;20552;-64
2022/05/13 11:39:28;;;;;;;24.52;4.68;;;13.70;99.90;;;;;;5016084;28;20064;-64
2022/05/13 11:42:18;;;;;;;18.70;5.20;;;13.70;99.90;;;;;;5011740;28;20065;-65
2022/05/13 11:45:09;;;;;;;26.33;5.47;;;13.80;99.90;;;;;;5015132;28;20037;-65
2022/05/13 11:48:10;;;;;;;22.90;4.40;;;14.20;99.90;;;;;;5015939;28;20109;-65
2022/05/13 11:50:35;;;;;;;32.55;5.53;;;14.20;99.90;;;;;;5015517;28;20021;-64
2022/05/13 11:53:02;;;;;;;18.92;4.97;;;13.90;99.90;;;;;;5001207;28;20105;-64
2022/05/13 11:55:43;;;;;;;27.00;4.43;;;13.90;99.90;;;;;;5034138;23;20050;-71
2022/05/13 11:58:29;;;;;;;27.95;5.25;;;13.90;99.90;;;;;;5035450;28;20022;-71
2022/05/13 12:00:54;;;;;;;26.33;6.15;;;13.90;99.90;;;;;;5035353;28;20026;-71
2022/05/13 12:03:20;;;;;;;42.53;4.93;;;14.00;99.90;;;;;;5034958;28;20029;-71
2022/05/13 12:06:08;;;;;;;32.22;5.25;;;14.00;99.90;;;;;;5035315;28;20029;-71
2022/05/13 12:08:40;;;;;;;24.38;4.38;;;14.00;99.90;;;;;;5035564;28;20030;-71
2022/05/13 12:11:16;;;;;;;24.73;5.25;;;13.90;99.90;;;;;;5034745;28;20508;-70
2022/05/13 12:14:06;;;;;;;27.05;5.53;;;13.60;99.90;;;;;;5035389;28;20033;-71
2022/05/13 12:17:05;;;;;;;30.42;6.28;;;13.60;99.90;;;;;;5035420;28;20469;-71
2022/05/13 12:19:54;;;;;;;25.48;5.07;;;13.70;99.90;;;;;;5034662;28;20030;-71
2022/05/13 12:22:30;;;;;;;20.35;5.10;;;13.70;99.90;;;;;;5035324;28;20021;-71
2022/05/13 12:25:30;;;;;;;23.27;5.13;;;13.70;99.90;;;;;;5035115;28;20109;-71
2022/05/13 12:28:07;;;;;;;21.73;4.95;;;13.70;99.90;;;;;;5015599;28;20040;-70
2022/05/13 12:30:39;;;;;;;25.92;5.43;;;13.50;99.90;;;;;;5035175;28;20022;-71
2022/05/13 12:33:20;;;;;;;24.17;5.38;;;13.30;99.90;;;;;;5034823;28;20075;-70
2022/05/13 12:39:11;;;;;;;26.40;5.40;;;13.30;99.90;;;;;;5035228;28;20029;-71
2022/05/13 12:41:45;;;;;;;29.40;5.43;;;13.30;99.90;;;;;;5034975;28;20389;-71
2022/05/13 12:44:26;;;;;;;46.33;7.80;;;13.40;99.90;;;;;;5035048;28;20100;-71
2022/05/13 12:47:13;;;;;;;33.60;5.85;;;13.40;99.90;;;;;;5034912;28;20477;-71
2022/05/13 12:49:55;;;;;;;30.65;7.20;;;13.40;99.90;;;;;;5035242;28;20037;-71
2022/05/13 12:52:33;;;;;;;35.17;5.78;;;13.70;99.90;;;;;;5035004;28;20084;-71
2022/05/13 12:55:21;;;;;;;27.75;5.95;;;13.90;99.90;;;;;;5033238;28;20041;-71
2022/05/13 12:58:05;;;;;;;28.50;5.85;;;14.30;99.90;;;;;;5036801;28;20032;-71
2022/05/13 13:00:33;;;;;;;;;;;14.30;99.90;;;;;;5035688;28;20080;-71
2022/05/13 13:03:03;;;;;;;30.67;5.75;;;14.10;99.90;;;;;;5034710;28;19913;-71
2022/05/13 13:05:35;;;;;;;30.48;6.93;;;14.00;99.90;;;;;;5034292;28;20079;-71
2022/05/13 13:08:10;;;;;;;41.83;6.32;;;13.90;99.90;;;;;;5034139;28;20493;-69
2022/05/13 13:10:36;;;;;;;42.72;7.03;;;14.00;99.90;;;;;;5030009;28;20029;-70
2022/05/13 13:13:10;;;;;;;29.40;5.82;;;14.30;99.90;;;;;;5022010;28;20040;-70
2022/05/13 13:15:46;;;;;;;29.92;5.32;;;14.60;99.90;;;;;;5028729;28;20048;-71
2022/05/13 13:18:14;;;;;;;34.85;6.88;;;15.10;99.90;;;;;;5034360;28;20025;-70
2022/05/13 13:21:00;;;;;;;36.05;6.45;;;15.40;99.90;;;;;;5033850;28;20034;-71
2022/05/13 13:23:32;;;;;;;37.13;6.15;;;15.20;99.90;;;;;;5034317;28;20049;-71
2022/05/13 13:25:58;;;;;;;26.48;6.10;;;15.10;99.90;;;;;;5034311;28;20030;-71
2022/05/13 13:28:33;;;;;;;30.65;6.07;;;14.90;99.90;;;;;;5034217;28;20022;-70